Time;durP1;ratioP1;P1;durP2;ratioP2;P2;SDS_P1;SDS_P2;PMS_P1;PMS_P2;Temp;Humidity;BMP_temperature;BMP_pressure;BME280_temperature;BME280_humidity;BME280_pressure;Samples;Min_cycle;Max_cycle;Signal;HPM_P1;HPM_P2
2022/12/22 03:26:15;;;;;;;;;2.00;1.67;;;;;14.78;100.00;100091.84;4981745;28;45378;-77
2022/12/22 03:28:40;;;;;;;;;8.00;3.00;;;;;14.78;100.00;100094.63;4980755;28;45974;-80
2022/12/22 03:31:06;;;;;;;;;3.00;0.00;;;;;14.76;100.00;100088.50;4989651;28;45682;-78
2022/12/22 03:33:32;;;;;;;;;0.67;0.67;;;;;14.68;100.00;100091.69;4992721;28;45697;-79
2022/12/22 03:35:58;;;;;;;;;3.33;2.00;;;;;14.62;100.00;100086.09;4981004;28;45740;-78
2022/12/22 03:38:24;;;;;;;;;2.33;1.33;;;;;14.58;100.00;100095.09;4986402;28;45450;-76
2022/12/22 03:40:50;;;;;;;;;5.67;0.00;;;;;14.49;100.00;100091.94;4989641;28;45356;-77
2022/12/22 03:49:08;;;;;;;;;3.00;0.33;;;;;14.38;100.00;100077.13;4991208;28;45322;-77
2022/12/22 03:51:32;;;;;;;;;2.00;0.00;;;;;14.29;100.00;100065.66;4989326;28;45353;-77
2022/12/22 03:53:57;;;;;;;;;1.00;1.00;;;;;14.26;100.00;100084.66;4975375;28;45808;-77
2022/12/22 03:56:22;;;;;;;;;3.00;1.00;;;;;14.23;100.00;100071.34;4973313;28;45774;-76
2022/12/22 03:58:48;;;;;;;;;0.67;0.00;;;;;14.15;100.00;100080.88;4981890;28;45851;-77
2022/12/22 04:01:13;;;;;;;;;1.67;1.33;;;;;14.12;100.00;100071.19;4980239;28;45384;-77
2022/12/22 04:03:39;;;;;;;;;2.00;2.00;;;;;14.19;100.00;100084.81;4997145;28;45420;-76
2022/12/22 04:06:04;;;;;;;;;0.33;0.00;;;;;14.24;100.00;100093.16;4995116;28;45434;-77
2022/12/22 04:08:29;;;;;;;;;2.00;1.00;;;;;14.29;100.00;100108.97;4998582;28;46567;-76
2022/12/22 04:13:39;;;;;;;;;1.00;1.00;;;;;14.34;100.00;100103.56;5008800;28;45451;-79
2022/12/22 04:16:05;;;;;;;;;0.33;0.33;;;;;14.36;100.00;100114.34;5023287;28;45523;-78
2022/12/22 04:18:30;;;;;;;;;1.67;1.33;;;;;14.38;100.00;100134.22;5002755;28;45510;-78
2022/12/22 04:20:56;;;;;;;;;2.00;0.67;;;;;14.37;100.00;100138.06;5014886;28;45582;-78
2022/12/22 04:23:21;;;;;;;;;1.33;1.33;;;;;14.39;100.00;100145.00;5022016;28;45904;-77
2022/12/22 04:25:46;;;;;;;;;3.00;2.00;;;;;14.41;100.00;100166.81;5017756;28;45693;-78
2022/12/22 04:28:12;;;;;;;;;0.00;0.00;;;;;14.36;100.00;100145.50;5023144;28;45855;-79
2022/12/22 04:30:37;;;;;;;;;2.00;0.00;;;;;14.45;100.00;100179.03;5016493;28;45432;-79
2022/12/22 04:33:03;;;;;;;;;2.00;0.33;;;;;14.46;100.00;100197.25;5026841;28;45491;-79
2022/12/22 04:35:28;;;;;;;;;2.00;1.00;;;;;14.47;100.00;100227.34;5012564;28;45763;-77
2022/12/22 04:37:53;;;;;;;;;0.67;0.00;;;;;14.47;100.00;100226.53;5024765;28;45843;-79
2022/12/22 04:40:19;;;;;;;;;1.33;1.00;;;;;14.49;100.00;100218.84;5029562;28;45342;-79
2022/12/22 04:42:44;;;;;;;;;2.67;0.00;;;;;14.50;100.00;100239.81;5009388;28;45308;-77
2022/12/22 04:45:11;;;;;;;;;3.00;0.00;;;;;14.43;100.00;100219.81;5021326;28;45562;-76
2022/12/22 04:47:37;;;;;;;;;0.00;0.00;;;;;14.48;100.00;100245.59;4997263;28;45778;-79
2022/12/22 04:50:03;;;;;;;;;0.67;0.00;;;;;14.52;100.00;100268.03;4991594;28;45364;-79
2022/12/22 04:52:28;;;;;;;;;3.33;0.67;;;;;14.47;100.00;100256.88;4999761;28;45771;-77
2022/12/22 04:54:54;;;;;;;;;2.00;0.00;;;;;14.56;100.00;100273.88;4994231;28;45628;-77
2022/12/22 04:57:20;;;;;;;;;0.00;0.00;;;;;14.59;100.00;100276.16;5002122;28;45854;-79
2022/12/22 04:59:45;;;;;;;;;1.00;0.00;;;;;14.61;100.00;100282.28;5006369;28;45668;-79
2022/12/22 05:02:11;;;;;;;;;0.00;0.00;;;;;14.64;100.00;100288.16;4996790;28;45704;-80
2022/12/22 05:04:37;;;;;;;;;1.00;1.00;;;;;14.64;100.00;100298.34;5013430;28;45670;-79
2022/12/22 05:07:03;;;;;;;;;3.67;0.00;;;;;14.59;100.00;100290.75;5017581;28;45508;-80
2022/12/22 05:09:28;;;;;;;;;0.00;0.00;;;;;14.69;100.00;100306.72;5025819;28;45792;-79
2022/12/22 05:11:54;;;;;;;;;1.00;0.00;;;;;14.68;100.00;100321.59;5013075;28;45723;-81
2022/12/22 05:14:19;;;;;;;;;0.67;0.00;;;;;14.70;100.00;100330.50;4984122;28;45853;-79
2022/12/22 05:16:45;;;;;;;;;0.00;0.00;;;;;14.70;100.00;100330.50;5010173;28;47565;-79
2022/12/22 05:19:11;;;;;;;;;0.00;0.00;;;;;14.74;100.00;100345.47;5024838;28;45296;-80
2022/12/22 05:21:36;;;;;;;;;0.67;0.00;;;;;14.72;100.00;100339.34;5008524;28;45871;-80
2022/12/22 05:24:02;;;;;;;;;0.00;0.00;;;;;14.76;100.00;100339.69;4998370;28;45277;-76
2022/12/22 05:26:27;;;;;;;;;0.00;0.00;;;;;14.76;100.00;100348.81;5012737;28;46344;-76
2022/12/22 05:28:53;;;;;;;;;0.00;0.00;;;;;14.74;100.00;100347.38;5020009;28;45342;-76
2022/12/22 05:31:22;;;;;;;;;1.00;1.00;;;;;14.79;100.00;100351.09;5011340;28;45626;-77
2022/12/22 05:33:48;;;;;;;;;1.67;0.00;;;;;14.79;100.00;100350.22;5009590;28;45761;-75
2022/12/22 05:36:14;;;;;;;;;1.00;0.00;;;;;14.77;100.00;100357.94;5010516;28;47660;-76
2022/12/22 05:38:39;;;;;;;;;2.00;1.00;;;;;14.71;100.00;100347.88;5014115;28;45405;-76
2022/12/22 05:41:06;;;;;;;;;2.00;2.00;;;;;14.79;100.00;100355.75;5015988;28;45852;-76
2022/12/22 05:43:33;;;;;;;;;0.33;0.33;;;;;14.77;100.00;100368.97;5032808;28;45649;-78
2022/12/22 05:46:03;;;;;;;;;0.75;0.50;;;;;14.71;100.00;100369.97;5028750;28;45991;-76
2022/12/22 05:48:29;;;;;;;;;0.75;0.00;;;;;14.68;100.00;100370.47;5022815;28;45392;-78
2022/12/22 05:50:54;;;;;;;;;1.00;0.00;;;;;14.65;100.00;100377.31;5023611;28;45438;-81
2022/12/22 05:53:20;;;;;;;;;0.00;0.00;;;;;14.65;100.00;100385.59;5013770;28;45403;-79
2022/12/22 05:55:46;;;;;;;;;0.00;0.00;;;;;14.65;100.00;100380.91;5015675;28;46376;-79
2022/12/22 05:58:11;;;;;;;;;0.67;0.00;;;;;14.61;100.00;100382.47;4979152;28;45995;-78
2022/12/22 06:00:37;;;;;;;;;0.00;0.00;;;;;14.59;100.00;100387.34;4975947;28;45769;-77
2022/12/22 06:03:03;;;;;;;;;0.00;0.00;;;;;14.61;100.00;100382.47;5008936;28;45409;-75
2022/12/22 06:05:29;;;;;;;;;1.00;0.00;;;;;14.62;100.00;100388.84;5002021;28;45661;-75
2022/12/22 06:07:54;;;;;;;;;0.00;0.00;;;;;14.63;100.00;100401.56;5000241;28;45387;-72
2022/12/22 06:10:19;;;;;;;;;0.00;0.00;;;;;14.67;100.00;100399.13;5009816;28;45656;-70
2022/12/22 06:12:45;;;;;;;;;0.00;0.00;;;;;14.66;100.00;100409.34;5010783;28;45467;-75
2022/12/22 06:15:13;;;;;;;;;0.00;0.00;;;;;14.66;100.00;100412.09;4995041;28;47358;-79
2022/12/22 06:17:39;;;;;;;;;2.67;0.67;;;;;14.64;100.00;100417.00;5011398;28;45871;-76
2022/12/22 06:20:05;;;;;;;;;0.00;0.00;;;;;14.70;100.00;100421.59;4994600;28;45452;-76
2022/12/22 06:22:32;;;;;;;;;2.00;0.00;;;;;14.66;100.00;100423.16;5026459;28;45803;-76
2022/12/22 06:24:57;;;;;;;;;2.00;1.00;;;;;14.69;100.00;100443.91;5010017;28;45414;-79
2022/12/22 06:27:23;;;;;;;;;0.67;0.00;;;;;14.68;100.00;100456.84;5004425;28;45684;-79
2022/12/22 06:29:48;;;;;;;;;1.67;0.00;;;;;14.55;100.00;100435.88;5017926;28;45535;-81
2022/12/22 06:32:14;;;;;;;;;0.00;0.00;;;;;14.56;100.00;100454.09;5005612;28;45799;-81
2022/12/22 06:34:39;;;;;;;;;0.00;0.00;;;;;14.49;100.00;100467.19;5027934;28;45695;-77
2022/12/22 06:37:05;;;;;;;;;0.00;0.00;;;;;14.40;100.00;100463.97;5009382;28;45684;-72
2022/12/22 06:39:31;;;;;;;;;0.33;0.00;;;;;14.42;100.00;100469.22;5027770;28;45409;-74
2022/12/22 06:44:40;;;;;;;;;0.00;0.00;;;;;14.30;100.00;100475.59;5001280;28;46103;-74
2022/12/22 06:47:05;;;;;;;;;0.00;0.00;;;;;14.24;100.00;100476.56;4993728;28;45456;-76
2022/12/22 06:49:30;;;;;;;;;0.00;0.00;;;;;14.15;100.00;100469.72;5010821;28;45865;-77
2022/12/22 06:51:56;;;;;;;;;0.00;0.00;;;;;14.16;100.00;100468.66;5011686;28;45561;-76
2022/12/22 06:54:21;;;;;;;;;1.00;1.00;;;;;14.22;100.00;100486.13;5001902;28;45473;-75
2022/12/22 06:56:47;;;;;;;;;0.33;0.00;;;;;14.15;100.00;100477.13;5013326;28;45878;-76
2022/12/22 06:59:13;;;;;;;;;1.00;1.00;;;;;14.21;100.00;100481.72;5006677;28;45809;-78
2022/12/22 07:01:38;;;;;;;;;0.00;0.00;;;;;14.21;100.00;100488.06;5007658;28;45610;-78
2022/12/22 07:04:04;;;;;;;;;3.00;1.00;;;;;14.22;100.00;100491.66;5005285;28;45950;-73
2022/12/22 07:06:29;;;;;;;;;1.67;0.00;;;;;14.21;100.00;100488.06;5003501;28;45851;-74
2022/12/22 07:08:54;;;;;;;;;2.00;0.67;;;;;14.19;100.00;100501.25;5009437;28;45634;-75
2022/12/22 07:11:20;;;;;;;;;3.33;0.00;;;;;14.20;100.00;100502.94;5009179;28;45705;-78
2022/12/22 07:13:46;;;;;;;;;2.00;2.00;;;;;14.20;100.00;100507.63;5014278;28;46521;-75
2022/12/22 07:16:11;;;;;;;;;2.00;1.00;;;;;14.21;100.00;100504.63;5011910;28;45525;-74
2022/12/22 07:18:40;;;;;;;;;2.00;1.00;;;;;14.14;100.00;100503.88;5010554;28;46477;-74
2022/12/22 07:21:07;;;;;;;;;0.00;0.00;;;;;14.13;100.00;100511.31;5006472;28;46100;-73
2022/12/22 07:23:33;;;;;;;;;1.00;0.67;;;;;14.12;100.00;100506.88;4998779;28;46026;-73
2022/12/22 07:25:59;;;;;;;;;3.00;3.00;;;;;14.17;100.00;100525.47;4999513;28;45651;-75
2022/12/22 07:28:25;;;;;;;;;2.67;2.33;;;;;14.19;100.00;100523.34;5001869;28;45814;-74
2022/12/22 07:30:52;;;;;;;;;3.67;0.33;;;;;14.21;100.00;100523.91;5011610;28;45315;-74
2022/12/22 07:33:18;;;;;;;;;6.33;2.33;;;;;14.23;100.00;100524.50;5010906;28;45898;-75
2022/12/22 07:35:43;;;;;;;;;3.00;2.00;;;;;14.23;100.00;100524.50;5009893;28;45557;-79
2022/12/22 07:38:09;;;;;;;;;5.00;2.00;;;;;14.27;100.00;100535.94;5004942;28;45873;-79
2022/12/22 07:40:35;;;;;;;;;4.67;3.00;;;;;14.33;100.00;100526.69;5001955;28;45737;-79
2022/12/22 07:43:01;;;;;;;;;7.33;4.33;;;;;14.32;100.00;100526.94;5009404;28;46526;-78
2022/12/22 07:45:26;;;;;;;;;2.00;1.00;;;;;14.35;100.00;100529.22;5006324;28;45684;-76
2022/12/22 07:47:58;;;;;;;;;5.33;2.33;;;;;14.36;100.00;100533.66;5008061;28;45775;-77
2022/12/22 07:50:23;;;;;;;;;3.67;2.67;;;;;14.36;100.00;100526.22;5012016;28;46087;-77
2022/12/22 07:53:03;;;;;;;;;4.00;3.00;;;;;14.40;100.00;100529.31;5008124;28;45597;-75
2022/12/22 07:55:31;;;;;;;;;6.67;3.00;;;;;14.45;100.00;100533.03;4993759;28;46171;-73
2022/12/22 07:57:57;;;;;;;;;7.33;4.33;;;;;14.44;100.00;100522.25;5006838;28;45535;-72
2022/12/22 08:00:23;;;;;;;;;8.00;5.33;;;;;14.53;100.00;100536.53;5005020;28;45836;-75
2022/12/22 08:02:50;;;;;;;;;7.67;5.00;;;;;14.53;100.00;100531.00;4993163;28;47564;-71
2022/12/22 08:05:16;;;;;;;;;12.67;6.67;;;;;14.56;100.00;100525.84;5011338;28;45395;-73
2022/12/22 08:07:42;;;;;;;;;6.67;5.00;;;;;14.60;100.00;100540.00;5021015;28;45766;-77
2022/12/22 08:10:08;;;;;;;;;6.67;3.33;;;;;14.58;100.00;100523.69;5013167;28;45592;-77
2022/12/22 08:12:34;;;;;;;;;13.33;4.67;;;;;14.59;100.00;100528.09;5027504;28;45782;-79
2022/12/22 08:14:59;;;;;;;;;11.33;5.67;;;;;14.60;100.00;100537.25;5013582;28;45507;-79
2022/12/22 08:17:26;;;;;;;;;7.00;4.67;;;;;14.58;100.00;100545.78;5016331;28;45752;-79
2022/12/22 08:19:54;;;;;;;;;7.67;6.33;;;;;14.56;100.00;100541.56;5000085;28;45767;-80
2022/12/22 08:22:24;;;;;;;;;10.67;6.67;;;;;14.52;100.00;100538.47;5010088;28;48521;-81
2022/12/22 08:24:53;;;;;;;;;11.33;7.67;;;;;14.63;100.00;100539.56;5020662;28;45697;-80
2022/12/22 08:27:41;;;;;;;;;5.00;4.00;;;;;14.65;100.00;100554.81;5001025;28;45693;-78
2022/12/22 08:30:08;;;;;;;;;5.67;4.67;;;;;14.70;100.00;100555.97;5012376;28;45404;-79
2022/12/22 08:32:36;;;;;;;;;8.33;6.33;;;;;14.73;100.00;100561.88;5015020;28;46530;-81
2022/12/22 08:35:07;;;;;;;;;7.00;4.00;;;;;14.77;100.00;100557.53;5017400;28;45466;-77
2022/12/22 08:37:39;;;;;;;;;9.33;5.33;;;;;14.85;100.00;100561.88;5030622;28;45864;-76
2022/12/22 08:40:11;;;;;;;;;12.00;7.00;;;;;14.87;100.00;100556.09;5000961;28;46199;-76
2022/12/22 08:42:38;;;;;;;;;7.67;7.33;;;;;14.80;100.00;100553.44;5017287;28;45460;-75
2022/12/22 08:45:04;;;;;;;;;14.00;7.67;;;;;14.81;100.00;100542.16;5032562;28;45611;-75
2022/12/22 08:47:30;;;;;;;;;12.00;5.33;;;;;14.78;100.00;100533.53;5018961;28;45365;-76
2022/12/22 08:49:55;;;;;;;;;11.00;6.00;;;;;14.93;100.00;100544.91;5013724;28;45423;-76
2022/12/22 08:52:20;;;;;;;;;15.33;8.00;;;;;14.99;100.00;100552.22;4993909;28;46350;-80
2022/12/22 08:54:46;;;;;;;;;11.00;8.67;;;;;14.99;100.00;100549.47;5013382;28;45615;-79
2022/12/22 08:57:11;;;;;;;;;11.67;6.33;;;;;15.06;100.00;100549.34;5013652;28;45563;-80
2022/12/22 08:59:37;;;;;;;;;12.00;8.33;;;;;15.08;100.00;100547.16;5014104;28;45615;-81
2022/12/22 09:02:05;;;;;;;;;17.33;5.67;;;;;15.11;100.00;100551.38;5011741;28;46527;-81
2022/12/22 09:04:32;;;;;;;;;20.33;9.00;;;;;15.03;100.00;100526.88;4999239;28;45892;-81
2022/12/22 09:06:58;;;;;;;;;11.00;7.33;;;;;15.18;100.00;100541.84;5001529;28;45650;-76
2022/12/22 09:09:24;;;;;;;;;13.33;9.00;;;;;15.24;100.00;100534.53;5011459;28;45700;-77
2022/12/22 09:11:50;;;;;;;;;11.67;9.00;;;;;15.36;100.00;100540.00;4977707;28;46469;-75
2022/12/22 09:14:16;;;;;;;;;12.67;9.00;;;;;15.42;100.00;100540.91;4993325;28;45402;-75
2022/12/22 09:16:42;;;;;;;;;10.00;6.00;;;;;15.48;100.00;100535.25;4993888;28;45350;-74
2022/12/22 09:19:07;;;;;;;;;10.67;9.33;;;;;15.50;100.00;100537.78;5005554;28;45507;-75
2022/12/22 09:21:34;;;;;;;;;12.00;8.33;;;;;15.51;100.00;100553.28;4992813;28;45431;-74
2022/12/22 09:23:59;;;;;;;;;11.33;5.33;;;;;15.47;100.00;100549.31;4975248;28;45421;-75
2022/12/22 09:26:27;;;;;;;;;8.33;4.33;;;;;15.50;100.00;100554.38;4992635;28;45395;-77
2022/12/22 09:28:53;;;;;;;;;10.00;7.00;;;;;15.57;100.00;100551.44;4987878;28;45661;-80
2022/12/22 09:31:20;;;;;;;;;9.33;5.33;;;;;15.59;100.00;100547.34;5000291;28;45736;-77
2022/12/22 09:33:46;;;;;;;;;9.33;5.00;;;;;15.50;100.00;100527.56;5013328;28;45640;-78
2022/12/22 09:36:15;;;;;;;;;13.00;7.67;;;;;15.61;100.00;100550.69;5010184;28;45495;-82
2022/12/22 09:38:41;;;;;;;;;11.00;8.33;;;;;15.60;100.00;100553.69;4987101;28;45841;-82
2022/12/22 09:41:31;;;;;;;;;10.33;7.33;;;;;15.62;100.00;100554.31;4964893;28;46308;-78
2022/12/22 09:44:04;;;;;;;;;16.33;8.00;;;;;15.50;100.00;100546.06;4990801;28;45885;-79
2022/12/22 09:46:34;;;;;;;;;12.00;7.67;;;;;15.68;100.00;100567.16;4979136;28;45833;-80
2022/12/22 09:48:59;;;;;;;;;11.00;9.00;;;;;15.70;100.00;100560.28;4985079;28;46161;-82
2022/12/22 09:51:25;;;;;;;;;11.00;7.67;;;;;15.74;100.00;100560.63;4988917;28;46072;-79
2022/12/22 09:53:56;;;;;;;;;17.67;10.67;;;;;15.78;100.00;100566.50;4987154;28;45680;-81
2022/12/22 09:56:24;;;;;;;;;9.33;6.67;;;;;15.83;100.00;100572.16;4974999;28;45750;-79
2022/12/22 09:58:49;;;;;;;;;19.33;10.67;;;;;15.85;100.00;100579.13;4991208;28;46339;-84
2022/12/22 10:01:55;;;;;;;;;10.33;8.00;;;;;15.84;100.00;100571.91;4987037;28;45592;-83
2022/12/22 10:04:39;;;;;;;;;15.00;10.33;;;;;15.87;100.00;100571.41;5000268;28;46171;-81
2022/12/22 10:07:16;;;;;;;;;9.00;6.67;;;;;15.95;100.00;100564.63;4986677;28;45813;-82
2022/12/22 10:09:41;;;;;;;;;13.67;9.33;;;;;16.04;100.00;100565.06;4993435;28;45761;-83
2022/12/22 10:12:13;;;;;;;;;9.00;8.00;;;;;16.05;100.00;100562.03;4994092;28;45461;-82
2022/12/22 10:14:45;;;;;;;;;10.00;6.33;;;;;16.08;100.00;100559.84;4988792;28;45684;-80
2022/12/22 10:17:27;;;;;;;;;10.67;8.33;;;;;16.19;100.00;100564.50;4985511;28;45708;-82
2022/12/22 10:20:07;;;;;;;;;9.33;7.00;;;;;16.21;100.00;100563.16;4987412;28;45439;-80
2022/12/22 10:22:37;;;;;;;;;10.67;5.00;;;;;16.24;100.00;100561.78;4985266;28;47692;-81
2022/12/22 10:25:04;;;;;;;;;15.00;9.00;;;;;16.33;100.00;100560.31;4988180;28;45946;-81
2022/12/22 10:27:33;;;;;;;;;15.67;9.67;;;;;16.35;100.00;100558.13;4980518;28;45428;-83
2022/12/22 10:30:20;;;;;;;;;9.33;6.00;;;;;16.44;100.00;100563.22;4980926;28;45874;-82
2022/12/22 10:33:06;;;;;;;;;13.67;6.67;;;;;16.51;100.00;100561.13;4986741;28;45655;-83
2022/12/22 10:35:44;;;;;;;;;7.67;7.67;;;;;16.35;100.00;100538.75;4984288;28;45737;-86
2022/12/22 10:38:18;;;;;;;;;12.67;8.33;;;;;16.51;100.00;100553.66;4990312;28;45662;-85
2022/12/22 10:40:47;;;;;;;;;13.00;9.00;;;;;16.61;100.00;100555.75;4990044;28;45654;-84
2022/12/22 10:43:24;;;;;;;;;11.67;7.33;;;;;16.64;100.00;100552.47;4991276;28;45685;-85
2022/12/22 10:45:51;;;;;;;;;11.33;7.33;;;;;16.57;100.00;100543.50;4984669;28;45452;-85
2022/12/22 10:48:26;;;;;;;;;15.00;9.33;;;;;16.59;100.00;100544.09;4977522;28;45661;-78
2022/12/22 10:50:52;;;;;;;;;8.67;8.33;;;;;16.67;100.00;100554.72;4981751;28;45509;-81
2022/12/22 10:53:17;;;;;;;;;19.67;10.33;;;;;16.68;100.00;100556.41;4974043;28;46805;-77
2022/12/22 10:55:43;;;;;;;;;11.33;5.33;;;;;16.58;100.00;100539.63;4981265;28;45868;-75
2022/12/22 10:58:08;;;;;;;;;14.33;7.67;;;;;16.66;100.00;100554.97;4974951;28;45656;-76
2022/12/22 11:00:34;;;;;;;;;9.00;6.67;;;;;16.61;100.00;100552.16;4979610;28;45570;-75
2022/12/22 11:03:02;;;;;;;;;12.67;5.67;;;;;16.60;100.00;100554.06;5001874;28;45641;-78
2022/12/22 11:05:28;;;;;;;;;7.67;6.67;;;;;16.58;100.00;100547.94;5026746;28;45901;-86
2022/12/22 11:07:54;;;;;;;;;8.33;7.33;;;;;16.63;100.00;100553.56;4994690;28;45427;-79
2022/12/22 11:10:38;;;;;;;;;13.00;8.00;;;;;16.54;100.00;100530.16;4995668;28;45566;-84
2022/12/22 11:13:36;;;;;;;;;10.00;7.33;;;;;16.65;100.00;100553.31;5003955;28;46823;-78
2022/12/22 11:16:27;;;;;;;;;13.67;7.33;;;;;16.62;100.00;100545.50;5007069;28;45873;-82
2022/12/22 11:19:08;;;;;;;;;15.67;7.33;;;;;16.69;100.00;100551.69;4987530;28;45772;-78
2022/12/22 11:21:52;;;;;;;;;8.00;6.67;;;;;16.70;100.00;100551.44;5011551;28;45895;-74
2022/12/22 11:24:20;;;;;;;;;9.33;8.00;;;;;16.72;100.00;100549.28;5001757;28;46042;-74
2022/12/22 11:27:04;;;;;;;;;15.67;11.33;;;;;16.75;100.00;100537.69;5002961;28;45510;-80
2022/12/22 11:29:59;;;;;;;;;12.33;10.67;;;;;16.75;100.00;100540.44;5004326;28;45569;-79
2022/12/22 11:32:30;;;;;;;;;14.33;11.67;;;;;16.70;100.00;100540.38;5018018;28;45499;-84
2022/12/22 11:35:15;;;;;;;;;14.67;12.33;;;;;16.67;100.00;100528.97;5010786;28;46044;-83
2022/12/22 11:37:55;;;;;;;;;18.00;15.33;;;;;16.66;100.00;100532.81;5007745;28;45529;-80
2022/12/22 11:40:24;;;;;;;;;12.00;10.67;;;;;16.65;100.00;100531.16;5013529;28;45438;-82
2022/12/22 11:43:28;;;;;;;;;16.67;6.00;;;;;16.53;100.00;100532.09;5007072;28;46164;-79
2022/12/22 11:46:12;;;;;;;;;13.33;10.00;;;;;16.54;100.00;100535.69;5001364;28;46679;-79
2022/12/22 11:49:11;;;;;;;;;9.33;6.00;;;;;16.53;100.00;100522.97;5012497;28;45762;-79
2022/12/22 11:52:26;;;;;;;;;18.33;11.33;;;;;16.49;100.00;100524.56;5005944;28;45553;-77
2022/12/22 11:55:12;;;;;;;;;9.33;6.00;;;;;16.43;100.00;100495.97;4981849;28;45901;-79
2022/12/22 11:57:56;;;;;;;;;11.67;8.67;;;;;16.60;100.00;100515.28;4998574;28;46365;-78
2022/12/22 12:00:21;;;;;;;;;10.33;8.67;;;;;16.58;100.00;100512.78;5013233;28;45435;-78
2022/12/22 12:03:00;;;;;;;;;11.33;6.33;;;;;16.74;100.00;100518.56;5002072;28;45749;-82
2022/12/22 12:05:43;;;;;;;;;17.33;10.67;;;;;16.83;100.00;100505.09;5008321;28;45447;-81
2022/12/22 12:08:33;;;;;;;;;12.67;10.00;;;;;16.87;100.00;100509.03;5010336;28;46289;-78
2022/12/22 12:11:22;;;;;;;;;13.33;6.67;;;;;16.88;100.00;100496.88;4998817;28;45643;-75
2022/12/22 12:14:02;;;;;;;;;20.33;14.33;;;;;16.95;100.00;100494.75;5007972;28;45498;-83
2022/12/22 12:16:34;;;;;;;;;18.67;10.33;;;;;16.96;100.00;100493.69;5012963;28;45819;-84
2022/12/22 12:19:21;;;;;;;;;11.67;9.00;;;;;16.94;100.00;100491.13;4995881;28;46835;-82
2022/12/22 12:21:51;;;;;;;;;12.00;6.00;;;;;16.85;100.00;100476.03;5013207;28;45711;-80
2022/12/22 12:24:37;;;;;;;;;19.33;9.00;;;;;16.91;100.00;100479.75;5011536;28;45951;-81
2022/12/22 12:27:31;;;;;;;;;17.00;10.00;;;;;16.87;100.00;100486.88;4998671;28;45779;-83
2022/12/22 12:30:11;;;;;;;;;17.33;7.67;;;;;16.76;100.00;100481.19;5004611;28;45723;-84
2022/12/22 12:32:54;;;;;;;;;15.00;8.67;;;;;16.69;100.00;100476.94;5002002;28;45470;-82
2022/12/22 12:35:38;;;;;;;;;11.00;7.00;;;;;16.67;100.00;100471.66;4994520;28;45510;-81
2022/12/22 12:38:20;;;;;;;;;9.33;7.67;;;;;16.49;100.00;100445.09;5006130;28;45755;-81
2022/12/22 12:41:02;;;;;;;;;11.00;6.00;;;;;16.43;100.00;100446.13;5013906;28;46324;-81
2022/12/22 12:43:28;;;;;;;;;7.67;5.00;;;;;16.35;100.00;100439.13;5007873;28;45518;-83
2022/12/22 12:45:54;;;;;;;;;15.67;9.00;;;;;16.45;100.00;100446.69;5008974;28;45492;-82
2022/12/22 12:48:19;;;;;;;;;10.33;9.00;;;;;16.44;100.00;100441.44;5009652;28;45776;-83
2022/12/22 12:50:49;;;;;;;;;9.00;3.00;;;;;16.41;100.00;100437.25;5005960;28;46132;-81
2022/12/22 12:53:16;;;;;;;;;12.00;8.33;;;;;16.43;100.00;100446.13;5003827;28;45550;-80
2022/12/22 12:55:53;;;;;;;;;13.67;9.00;;;;;16.41;100.00;100432.56;5001848;28;45668;-74
2022/12/22 12:58:34;;;;;;;;;15.00;7.67;;;;;16.39;100.00;100434.75;5004419;28;45951;-83
2022/12/22 13:01:01;;;;;;;;;9.00;5.67;;;;;16.30;100.00;100430.75;5004403;28;45614;-81
2022/12/22 13:03:27;;;;;;;;;14.33;11.33;;;;;16.35;100.00;100428.03;4969878;28;1158903;-76
2022/12/22 13:05:58;;;;;;;;;10.00;10.00;;;;;16.29;100.00;100433.75;5005859;28;45407;-76
2022/12/22 13:08:30;;;;;;;;;15.67;8.00;;;;;16.28;100.00;100421.03;4996780;28;46297;-77
2022/12/22 13:10:55;;;;;;;;;17.33;9.00;;;;;16.27;100.00;100425.69;5000286;28;46748;-74
2022/12/22 13:13:21;;;;;;;;;10.00;7.67;;;;;16.14;100.00;100424.16;5000956;28;45537;-79
2022/12/22 13:16:07;;;;;;;;;9.33;8.33;;;;;16.10;100.00;100416.63;5000643;28;45498;-76
2022/12/22 13:18:33;;;;;;;;;10.00;8.33;;;;;16.03;100.00;100425.94;5001822;28;45519;-78
2022/12/22 13:21:20;;;;;;;;;11.33;9.33;;;;;15.94;100.00;100421.88;4997371;28;46656;-79
2022/12/22 13:23:55;;;;;;;;;12.67;8.67;;;;;15.88;100.00;100418.22;5031505;28;45574;-78
2022/12/22 13:26:24;;;;;;;;;9.67;5.67;;;;;15.86;100.00;100408.50;5012567;28;45351;-77
2022/12/22 13:29:00;;;;;;;;;17.00;9.33;;;;;15.81;100.00;100422.25;4991643;28;45464;-77
2022/12/22 13:31:40;;;;;;;;;15.00;9.33;;;;;15.79;100.00;100410.59;5006686;28;46747;-79
2022/12/22 13:34:36;;;;;;;;;7.67;4.67;;;;;15.79;100.00;100413.34;4979841;28;45874;-74
2022/12/22 13:37:13;;;;;;;;;13.00;6.00;;;;;15.74;100.00;100411.31;4997070;28;45969;-77
2022/12/22 13:39:39;;;;;;;;;12.67;6.67;;;;;15.64;100.00;100402.84;5003763;28;45426;-79
2022/12/22 13:42:06;;;;;;;;;10.67;7.67;;;;;15.49;100.00;100387.72;4985042;28;46461;-81
2022/12/22 13:44:33;;;;;;;;;10.33;8.33;;;;;15.52;100.00;100389.97;5022461;28;45524;-80
2022/12/22 13:47:10;;;;;;;;;9.33;7.00;;;;;15.57;100.00;100397.50;4999616;28;45767;-80
2022/12/22 13:49:37;;;;;;;;;14.33;8.67;;;;;15.55;100.00;100380.31;5011498;28;45290;-75
2022/12/22 13:52:03;;;;;;;;;10.00;8.33;;;;;15.50;100.00;100388.53;5013202;28;46836;-78
2022/12/22 13:54:34;;;;;;;;;15.00;9.00;;;;;15.43;100.00;100377.63;5026549;28;45878;-79
2022/12/22 13:57:03;;;;;;;;;12.33;7.67;;;;;15.40;100.00;100372.59;5005396;28;45343;-82
2022/12/22 13:59:39;;;;;;;;;8.33;7.67;;;;;15.28;100.00;100369.09;5013156;28;46009;-76
2022/12/22 14:02:07;;;;;;;;;8.67;6.00;;;;;15.31;100.00;100374.97;4984043;28;46157;-76
2022/12/22 14:04:35;;;;;;;;;13.33;5.33;;;;;15.29;100.00;100359.72;5004910;28;45812;-75
2022/12/22 14:07:14;;;;;;;;;14.33;7.67;;;;;15.20;100.00;100364.81;5007179;28;45839;-73
2022/12/22 14:09:53;;;;;;;;;20.33;10.33;;;;;15.18;100.00;100358.72;5004914;28;45759;-77
2022/12/22 14:12:25;;;;;;;;;8.00;3.00;;;;;15.11;100.00;100352.50;5029166;28;46618;-76
2022/12/22 14:14:53;;;;;;;;;8.67;7.00;;;;;15.11;100.00;100335.94;5029752;28;45351;-77
2022/12/22 14:17:26;;;;;;;;;15.67;9.67;;;;;15.08;100.00;100330.91;5028395;28;45692;-76
2022/12/22 14:19:56;;;;;;;;;11.67;5.67;;;;;15.02;100.00;100331.91;5009582;28;45782;-75
2022/12/22 14:22:27;;;;;;;;;14.67;7.67;;;;;15.00;100.00;100332.16;5011362;28;46056;-75
2022/12/22 14:24:58;;;;;;;;;14.67;6.33;;;;;14.90;100.00;100316.22;5012885;28;45390;-73
2022/12/22 14:27:38;;;;;;;;;5.00;4.67;;;;;14.94;100.00;100335.88;5009145;28;45391;-76
2022/12/22 14:30:19;;;;;;;;;11.33;4.67;;;;;14.93;100.00;100321.25;5005390;28;45774;-75
2022/12/22 14:32:48;;;;;;;;;11.33;7.33;;;;;14.93;100.00;100320.41;5009196;28;46338;-74
2022/12/22 14:35:19;;;;;;;;;10.00;5.33;;;;;14.90;100.00;100329.19;5001149;28;45537;-79
2022/12/22 14:38:23;;;;;;;;;5.00;2.67;;;;;14.83;100.00;100332.97;5002435;28;45472;-78
2022/12/22 14:40:51;;;;;;;;;11.33;5.67;;;;;14.77;100.00;100314.59;4996675;28;45843;-81
2022/12/22 14:43:17;;;;;;;;;5.00;3.67;;;;;14.70;100.00;100283.56;5000055;28;45423;-82
2022/12/22 14:45:48;;;;;;;;;11.00;5.00;;;;;14.83;100.00;100296.22;4995692;28;45532;-82
2022/12/22 14:48:26;;;;;;;;;10.67;6.33;;;;;14.80;100.00;100285.66;4997444;28;45905;-79
2022/12/22 14:50:53;;;;;;;;;9.33;5.00;;;;;14.78;100.00;100282.31;5003113;28;45443;-78
2022/12/22 14:53:28;;;;;;;;;9.33;4.67;;;;;14.78;100.00;100276.81;4986930;28;46570;-80
2022/12/22 14:55:54;;;;;;;;;5.00;3.00;;;;;14.74;100.00;100272.88;4991783;28;45422;-75
2022/12/22 14:58:30;;;;;;;;;4.33;2.00;;;;;14.68;100.00;100263.66;5011072;28;45838;-78
2022/12/22 15:01:21;;;;;;;;;4.00;2.00;;;;;14.64;100.00;100260.56;5008410;28;45716;-76
2022/12/22 15:04:05;;;;;;;;;5.67;4.33;;;;;14.64;100.00;100251.41;4999820;28;46162;-79
2022/12/22 15:06:43;;;;;;;;;9.00;5.33;;;;;14.51;100.00;100249.78;4997384;28;45765;-76